sensor_id;sensor_type;location;lat;lon;timestamp;temperature;humidity
71563;DHT22;59391;52.504;13.438;2023-04-01T00:00:55;11.30;81.40
71563;DHT22;59391;52.504;13.438;2023-04-01T00:03:23;11.30;81.40
71563;DHT22;59391;52.504;13.438;2023-04-01T00:05:50;11.30;81.10
71563;DHT22;59391;52.504;13.438;2023-04-01T00:08:16;11.40;81.30
71563;DHT22;59391;52.504;13.438;2023-04-01T00:10:42;11.40;81.30
71563;DHT22;59391;52.504;13.438;2023-04-01T00:13:09;11.40;81.30
71563;DHT22;59391;52.504;13.438;2023-04-01T00:15:35;11.40;82.60
71563;DHT22;59391;52.504;13.438;2023-04-01T00:18:01;11.50;81.20
71563;DHT22;59391;52.504;13.438;2023-04-01T00:20:27;11.50;81.70
71563;DHT22;59391;52.504;13.438;2023-04-01T00:22:53;11.50;82.00
71563;DHT22;59391;52.504;13.438;2023-04-01T00:25:18;11.50;81.90
71563;DHT22;59391;52.504;13.438;2023-04-01T00:27:44;11.50;82.40
71563;DHT22;59391;52.504;13.438;2023-04-01T00:30:10;11.60;82.00
71563;DHT22;59391;52.504;13.438;2023-04-01T00:32:36;11.60;81.70
71563;DHT22;59391;52.504;13.438;2023-04-01T00:35:03;11.60;81.60
71563;DHT22;59391;52.504;13.438;2023-04-01T00:37:29;11.60;81.30
71563;DHT22;59391;52.504;13.438;2023-04-01T00:39:55;11.60;81.20
71563;DHT22;59391;52.504;13.438;2023-04-01T00:42:22;11.60;81.50
71563;DHT22;59391;52.504;13.438;2023-04-01T00:44:52;11.60;81.30
71563;DHT22;59391;52.504;13.438;2023-04-01T00:47:19;11.60;81.70
71563;DHT22;59391;52.504;13.438;2023-04-01T00:49:48;11.70;81.90
71563;DHT22;59391;52.504;13.438;2023-04-01T00:52:19;11.70;82.60
71563;DHT22;59391;52.504;13.438;2023-04-01T00:54:50;11.70;81.40
71563;DHT22;59391;52.504;13.438;2023-04-01T00:57:31;11.70;81.30
71563;DHT22;59391;52.504;13.438;2023-04-01T01:00:04;11.70;80.40
71563;DHT22;59391;52.504;13.438;2023-04-01T01:02:35;11.70;81.50
71563;DHT22;59391;52.504;13.438;2023-04-01T01:05:00;11.70;81.10
71563;DHT22;59391;52.504;13.438;2023-04-01T01:10:26;11.70;81.40
71563;DHT22;59391;52.504;13.438;2023-04-01T01:15:50;11.70;81.40
71563;DHT22;59391;52.504;13.438;2023-04-01T01:18:43;11.70;81.00
71563;DHT22;59391;52.504;13.438;2023-04-01T01:21:44;11.70;80.90
71563;DHT22;59391;52.504;13.438;2023-04-01T01:24:33;11.70;80.60
71563;DHT22;59391;52.504;13.438;2023-04-01T01:27:16;11.70;81.70
71563;DHT22;59391;52.504;13.438;2023-04-01T01:30:18;11.70;81.00
71563;DHT22;59391;52.504;13.438;2023-04-01T01:33:17;11.70;81.30
71563;DHT22;59391;52.504;13.438;2023-04-01T01:36:03;11.70;81.40
71563;DHT22;59391;52.504;13.438;2023-04-01T01:38:34;11.70;80.00
71563;DHT22;59391;52.504;13.438;2023-04-01T01:41:02;11.70;80.60
71563;DHT22;59391;52.504;13.438;2023-04-01T01:43:33;11.70;81.00
71563;DHT22;59391;52.504;13.438;2023-04-01T01:46:12;11.70;80.70
71563;DHT22;59391;52.504;13.438;2023-04-01T01:48:42;11.70;81.30
71563;DHT22;59391;52.504;13.438;2023-04-01T01:51:10;11.70;81.20
71563;DHT22;59391;52.504;13.438;2023-04-01T01:53:36;11.70;81.60
71563;DHT22;59391;52.504;13.438;2023-04-01T01:56:02;11.70;82.00
71563;DHT22;59391;52.504;13.438;2023-04-01T01:58:42;11.70;81.80
71563;DHT22;59391;52.504;13.438;2023-04-01T02:01:16;11.70;81.60
71563;DHT22;59391;52.504;13.438;2023-04-01T02:03:46;11.70;81.80
71563;DHT22;59391;52.504;13.438;2023-04-01T02:06:16;11.70;81.70
71563;DHT22;59391;52.504;13.438;2023-04-01T02:08:53;11.70;81.10
71563;DHT22;59391;52.504;13.438;2023-04-01T02:11:32;11.70;81.00
71563;DHT22;59391;52.504;13.438;2023-04-01T02:14:10;11.70;81.30
71563;DHT22;59391;52.504;13.438;2023-04-01T02:16:44;11.70;81.90
71563;DHT22;59391;52.504;13.438;2023-04-01T02:19:16;11.70;82.00
71563;DHT22;59391;52.504;13.438;2023-04-01T02:21:50;11.70;81.50
71563;DHT22;59391;52.504;13.438;2023-04-01T02:24:22;11.70;81.80
71563;DHT22;59391;52.504;13.438;2023-04-01T02:26:51;11.70;81.10
71563;DHT22;59391;52.504;13.438;2023-04-01T02:29:21;11.70;81.50
71563;DHT22;59391;52.504;13.438;2023-04-01T02:31:50;11.70;81.60
71563;DHT22;59391;52.504;13.438;2023-04-01T02:34:17;11.70;81.90
71563;DHT22;59391;52.504;13.438;2023-04-01T02:36:43;11.70;82.10
71563;DHT22;59391;52.504;13.438;2023-04-01T02:39:10;11.70;81.90
71563;DHT22;59391;52.504;13.438;2023-04-01T02:41:40;11.70;82.10
71563;DHT22;59391;52.504;13.438;2023-04-01T02:44:06;11.70;82.00
71563;DHT22;59391;52.504;13.438;2023-04-01T02:46:32;11.70;81.90
71563;DHT22;59391;52.504;13.438;2023-04-01T02:48:58;11.70;81.50
71563;DHT22;59391;52.504;13.438;2023-04-01T02:51:25;11.70;81.40
71563;DHT22;59391;52.504;13.438;2023-04-01T02:53:51;11.80;81.60
71563;DHT22;59391;52.504;13.438;2023-04-01T02:56:16;11.80;81.10
71563;DHT22;59391;52.504;13.438;2023-04-01T02:58:42;11.80;81.60
71563;DHT22;59391;52.504;13.438;2023-04-01T03:01:08;11.80;81.40
71563;DHT22;59391;52.504;13.438;2023-04-01T03:03:33;11.80;81.30
71563;DHT22;59391;52.504;13.438;2023-04-01T03:06:05;11.80;81.60
71563;DHT22;59391;52.504;13.438;2023-04-01T03:08:32;11.80;81.50
71563;DHT22;59391;52.504;13.438;2023-04-01T03:10:57;11.80;80.90
71563;DHT22;59391;52.504;13.438;2023-04-01T03:13:23;11.90;80.20
71563;DHT22;59391;52.504;13.438;2023-04-01T03:15:49;11.90;80.60
71563;DHT22;59391;52.504;13.438;2023-04-01T03:18:14;11.90;80.20
71563;DHT22;59391;52.504;13.438;2023-04-01T03:20:40;11.90;80.20
71563;DHT22;59391;52.504;13.438;2023-04-01T03:23:07;11.90;80.50
71563;DHT22;59391;52.504;13.438;2023-04-01T03:25:33;11.90;80.60
71563;DHT22;59391;52.504;13.438;2023-04-01T03:27:59;11.90;81.00
71563;DHT22;59391;52.504;13.438;2023-04-01T03:30:25;11.90;80.70
71563;DHT22;59391;52.504;13.438;2023-04-01T03:32:52;11.90;80.90
71563;DHT22;59391;52.504;13.438;2023-04-01T03:35:17;11.90;80.60
71563;DHT22;59391;52.504;13.438;2023-04-01T03:37:43;11.90;81.00
71563;DHT22;59391;52.504;13.438;2023-04-01T03:40:09;11.90;80.90
71563;DHT22;59391;52.504;13.438;2023-04-01T03:42:36;11.90;80.00
71563;DHT22;59391;52.504;13.438;2023-04-01T03:45:03;11.90;80.70
71563;DHT22;59391;52.504;13.438;2023-04-01T03:47:29;11.90;79.80
71563;DHT22;59391;52.504;13.438;2023-04-01T03:49:55;11.90;81.00
71563;DHT22;59391;52.504;13.438;2023-04-01T03:52:21;11.90;80.50
71563;DHT22;59391;52.504;13.438;2023-04-01T03:54:47;11.90;80.30
71563;DHT22;59391;52.504;13.438;2023-04-01T03:57:12;11.90;80.30
71563;DHT22;59391;52.504;13.438;2023-04-01T03:59:38;11.90;80.30
71563;DHT22;59391;52.504;13.438;2023-04-01T04:02:04;11.90;80.20
71563;DHT22;59391;52.504;13.438;2023-04-01T04:04:30;12.00;81.10
71563;DHT22;59391;52.504;13.438;2023-04-01T04:06:56;11.90;80.40
71563;DHT22;59391;52.504;13.438;2023-04-01T04:09:22;11.90;81.30
71563;DHT22;59391;52.504;13.438;2023-04-01T04:11:48;12.00;80.30
71563;DHT22;59391;52.504;13.438;2023-04-01T04:14:15;12.00;80.90
71563;DHT22;59391;52.504;13.438;2023-04-01T04:16:40;11.90;80.30
71563;DHT22;59391;52.504;13.438;2023-04-01T04:19:06;11.90;80.20
71563;DHT22;59391;52.504;13.438;2023-04-01T04:21:32;12.00;80.60
71563;DHT22;59391;52.504;13.438;2023-04-01T04:24:01;12.00;80.40
71563;DHT22;59391;52.504;13.438;2023-04-01T04:26:28;12.00;80.10
71563;DHT22;59391;52.504;13.438;2023-04-01T04:28:54;12.00;80.30
71563;DHT22;59391;52.504;13.438;2023-04-01T04:31:22;12.00;80.20
71563;DHT22;59391;52.504;13.438;2023-04-01T04:33:49;12.00;80.40
71563;DHT22;59391;52.504;13.438;2023-04-01T04:36:15;12.00;80.70
71563;DHT22;59391;52.504;13.438;2023-04-01T04:38:41;11.90;78.50
71563;DHT22;59391;52.504;13.438;2023-04-01T04:41:10;12.00;79.10
71563;DHT22;59391;52.504;13.438;2023-04-01T04:43:40;11.90;78.70
71563;DHT22;59391;52.504;13.438;2023-04-01T04:46:07;11.90;79.70
71563;DHT22;59391;52.504;13.438;2023-04-01T04:48:33;11.90;79.80
71563;DHT22;59391;52.504;13.438;2023-04-01T04:51:00;11.90;77.80
71563;DHT22;59391;52.504;13.438;2023-04-01T04:53:26;11.90;79.10
71563;DHT22;59391;52.504;13.438;2023-04-01T04:55:52;11.90;79.70
71563;DHT22;59391;52.504;13.438;2023-04-01T04:58:18;11.90;79.40
71563;DHT22;59391;52.504;13.438;2023-04-01T05:00:44;11.90;80.40
71563;DHT22;59391;52.504;13.438;2023-04-01T05:03:11;11.90;80.00
71563;DHT22;59391;52.504;13.438;2023-04-01T05:05:38;11.90;79.60
71563;DHT22;59391;52.504;13.438;2023-04-01T05:08:04;11.90;81.00
71563;DHT22;59391;52.504;13.438;2023-04-01T05:10:31;11.90;80.00
71563;DHT22;59391;52.504;13.438;2023-04-01T05:12:57;11.90;80.10
71563;DHT22;59391;52.504;13.438;2023-04-01T05:15:24;11.90;80.50
71563;DHT22;59391;52.504;13.438;2023-04-01T05:17:49;11.90;80.40
71563;DHT22;59391;52.504;13.438;2023-04-01T05:20:16;11.90;79.80
71563;DHT22;59391;52.504;13.438;2023-04-01T05:22:42;11.90;80.10
71563;DHT22;59391;52.504;13.438;2023-04-01T05:25:08;12.00;81.30
71563;DHT22;59391;52.504;13.438;2023-04-01T05:27:34;11.90;80.50
71563;DHT22;59391;52.504;13.438;2023-04-01T05:30:00;11.90;79.40
71563;DHT22;59391;52.504;13.438;2023-04-01T05:32:26;11.90;79.70
71563;DHT22;59391;52.504;13.438;2023-04-01T05:34:52;11.90;79.30
71563;DHT22;59391;52.504;13.438;2023-04-01T05:37:19;11.90;79.70
71563;DHT22;59391;52.504;13.438;2023-04-01T05:39:45;11.90;79.90
71563;DHT22;59391;52.504;13.438;2023-04-01T05:42:11;11.90;80.10
71563;DHT22;59391;52.504;13.438;2023-04-01T05:44:37;11.80;79.80
71563;DHT22;59391;52.504;13.438;2023-04-01T05:47:03;11.80;80.00
71563;DHT22;59391;52.504;13.438;2023-04-01T05:49:30;11.80;80.00
71563;DHT22;59391;52.504;13.438;2023-04-01T05:51:56;11.90;80.90
71563;DHT22;59391;52.504;13.438;2023-04-01T05:54:22;11.90;81.10
71563;DHT22;59391;52.504;13.438;2023-04-01T05:56:48;11.90;80.70
71563;DHT22;59391;52.504;13.438;2023-04-01T05:59:14;11.90;81.10
71563;DHT22;59391;52.504;13.438;2023-04-01T06:01:40;11.90;81.00
71563;DHT22;59391;52.504;13.438;2023-04-01T06:04:05;11.90;81.00
71563;DHT22;59391;52.504;13.438;2023-04-01T06:06:32;11.90;81.10
71563;DHT22;59391;52.504;13.438;2023-04-01T06:09:07;11.90;81.10
71563;DHT22;59391;52.504;13.438;2023-04-01T06:17:46;11.90;80.60
71563;DHT22;59391;52.504;13.438;2023-04-01T06:23:23;11.90;81.10
71563;DHT22;59391;52.504;13.438;2023-04-01T06:26:24;11.90;81.30
71563;DHT22;59391;52.504;13.438;2023-04-01T06:38:20;11.90;81.70
71563;DHT22;59391;52.504;13.438;2023-04-01T06:43:45;11.70;80.90
71563;DHT22;59391;52.504;13.438;2023-04-01T06:46:44;11.70;81.80
71563;DHT22;59391;52.504;13.438;2023-04-01T06:58:22;11.70;82.80
71563;DHT22;59391;52.504;13.438;2023-04-01T07:00:59;11.70;82.50
71563;DHT22;59391;52.504;13.438;2023-04-01T07:03:37;11.70;82.80
71563;DHT22;59391;52.504;13.438;2023-04-01T07:06:23;11.70;82.50
71563;DHT22;59391;52.504;13.438;2023-04-01T07:08:49;11.70;82.80
71563;DHT22;59391;52.504;13.438;2023-04-01T07:11:37;11.70;82.70
71563;DHT22;59391;52.504;13.438;2023-04-01T07:14:31;11.70;83.00
71563;DHT22;59391;52.504;13.438;2023-04-01T07:17:12;11.70;83.30
71563;DHT22;59391;52.504;13.438;2023-04-01T07:20:05;11.70;82.20
71563;DHT22;59391;52.504;13.438;2023-04-01T07:22:45;11.70;82.40
71563;DHT22;59391;52.504;13.438;2023-04-01T07:25:22;11.70;81.60
71563;DHT22;59391;52.504;13.438;2023-04-01T07:27:52;11.70;82.40
71563;DHT22;59391;52.504;13.438;2023-04-01T07:30:23;11.70;83.00
71563;DHT22;59391;52.504;13.438;2023-04-01T07:33:00;11.70;82.40
71563;DHT22;59391;52.504;13.438;2023-04-01T07:36:07;11.80;82.80
71563;DHT22;59391;52.504;13.438;2023-04-01T07:45:42;11.90;83.10
71563;DHT22;59391;52.504;13.438;2023-04-01T07:48:23;11.90;82.90
71563;DHT22;59391;52.504;13.438;2023-04-01T07:53:59;11.90;83.20
71563;DHT22;59391;52.504;13.438;2023-04-01T07:56:47;12.00;83.30
71563;DHT22;59391;52.504;13.438;2023-04-01T07:59:57;12.00;83.70
71563;DHT22;59391;52.504;13.438;2023-04-01T08:05:40;12.10;83.50
71563;DHT22;59391;52.504;13.438;2023-04-01T08:08:25;12.20;83.30
71563;DHT22;59391;52.504;13.438;2023-04-01T08:17:10;12.30;82.60
71563;DHT22;59391;52.504;13.438;2023-04-01T08:19:59;12.40;83.10
71563;DHT22;59391;52.504;13.438;2023-04-01T08:22:42;12.50;83.30
71563;DHT22;59391;52.504;13.438;2023-04-01T08:25:20;12.50;83.30
71563;DHT22;59391;52.504;13.438;2023-04-01T08:27:59;12.60;82.90
71563;DHT22;59391;52.504;13.438;2023-04-01T08:30:56;12.70;82.60
71563;DHT22;59391;52.504;13.438;2023-04-01T08:33:30;12.70;81.60
71563;DHT22;59391;52.504;13.438;2023-04-01T08:36:03;12.80;80.60
71563;DHT22;59391;52.504;13.438;2023-04-01T08:38:55;12.80;79.80
71563;DHT22;59391;52.504;13.438;2023-04-01T08:41:33;12.70;79.20
71563;DHT22;59391;52.504;13.438;2023-04-01T08:44:38;12.70;79.10
71563;DHT22;59391;52.504;13.438;2023-04-01T08:47:24;12.60;78.80
71563;DHT22;59391;52.504;13.438;2023-04-01T08:53:37;12.60;79.40
71563;DHT22;59391;52.504;13.438;2023-04-01T08:56:32;12.60;79.00
71563;DHT22;59391;52.504;13.438;2023-04-01T08:59:02;12.60;79.10
71563;DHT22;59391;52.504;13.438;2023-04-01T09:04:41;12.60;79.00
71563;DHT22;59391;52.504;13.438;2023-04-01T09:10:27;12.60;78.20
71563;DHT22;59391;52.504;13.438;2023-04-01T09:16:18;12.70;78.20
71563;DHT22;59391;52.504;13.438;2023-04-01T09:21:51;12.80;78.30
71563;DHT22;59391;52.504;13.438;2023-04-01T09:27:43;12.90;77.50
71563;DHT22;59391;52.504;13.438;2023-04-01T09:36:38;12.90;75.40
71563;DHT22;59391;52.504;13.438;2023-04-01T09:44:52;12.80;75.60
71563;DHT22;59391;52.504;13.438;2023-04-01T09:48:02;12.80;75.40
71563;DHT22;59391;52.504;13.438;2023-04-01T09:51:05;12.80;75.90
71563;DHT22;59391;52.504;13.438;2023-04-01T09:54:13;12.70;75.50
71563;DHT22;59391;52.504;13.438;2023-04-01T09:57:38;12.70;76.00
71563;DHT22;59391;52.504;13.438;2023-04-01T10:00:37;12.60;75.00
71563;DHT22;59391;52.504;13.438;2023-04-01T10:19:12;12.30;75.60
71563;DHT22;59391;52.504;13.438;2023-04-01T10:22:37;12.30;75.50
71563;DHT22;59391;52.504;13.438;2023-04-01T10:28:28;12.20;75.70
71563;DHT22;59391;52.504;13.438;2023-04-01T10:31:31;12.20;76.80
71563;DHT22;59391;52.504;13.438;2023-04-01T10:37:49;12.20;75.90
71563;DHT22;59391;52.504;13.438;2023-04-01T10:40:57;12.20;76.40
71563;DHT22;59391;52.504;13.438;2023-04-01T10:43:49;12.20;76.70
71563;DHT22;59391;52.504;13.438;2023-04-01T10:46:53;12.20;75.90
71563;DHT22;59391;52.504;13.438;2023-04-01T10:49:58;12.20;76.10
71563;DHT22;59391;52.504;13.438;2023-04-01T11:02:09;12.20;74.30
71563;DHT22;59391;52.504;13.438;2023-04-01T11:14:38;12.20;75.80
71563;DHT22;59391;52.504;13.438;2023-04-01T11:27:40;12.10;74.80
71563;DHT22;59391;52.504;13.438;2023-04-01T11:33:38;12.00;74.80
71563;DHT22;59391;52.504;13.438;2023-04-01T11:43:01;12.00;74.50
71563;DHT22;59391;52.504;13.438;2023-04-01T11:46:10;12.10;74.20
71563;DHT22;59391;52.504;13.438;2023-04-01T11:48:50;12.00;74.00
71563;DHT22;59391;52.504;13.438;2023-04-01T11:51:57;12.00;74.70
71563;DHT22;59391;52.504;13.438;2023-04-01T12:09:43;11.90;74.00
71563;DHT22;59391;52.504;13.438;2023-04-01T12:31:13;11.80;74.80
71563;DHT22;59391;52.504;13.438;2023-04-01T12:33:54;11.80;74.10
71563;DHT22;59391;52.504;13.438;2023-04-01T12:39:58;11.80;75.00
71563;DHT22;59391;52.504;13.438;2023-04-01T12:51:12;11.80;75.20
71563;DHT22;59391;52.504;13.438;2023-04-01T12:59:52;11.70;75.00
71563;DHT22;59391;52.504;13.438;2023-04-01T13:06:11;11.70;74.50
71563;DHT22;59391;52.504;13.438;2023-04-01T13:09:09;11.70;74.50
71563;DHT22;59391;52.504;13.438;2023-04-01T13:17:35;11.70;73.50
71563;DHT22;59391;52.504;13.438;2023-04-01T13:26:17;11.70;74.50
71563;DHT22;59391;52.504;13.438;2023-04-01T13:29:02;11.60;74.90
71563;DHT22;59391;52.504;13.438;2023-04-01T13:32:02;11.60;74.20
71563;DHT22;59391;52.504;13.438;2023-04-01T13:37:25;11.60;74.60
71563;DHT22;59391;52.504;13.438;2023-04-01T13:43:26;11.60;74.80
71563;DHT22;59391;52.504;13.438;2023-04-01T13:49:31;11.60;74.40
71563;DHT22;59391;52.504;13.438;2023-04-01T13:52:17;11.60;74.70
71563;DHT22;59391;52.504;13.438;2023-04-01T13:55:35;11.60;73.70
71563;DHT22;59391;52.504;13.438;2023-04-01T13:58:38;11.50;72.70
71563;DHT22;59391;52.504;13.438;2023-04-01T14:01:39;11.50;73.20
71563;DHT22;59391;52.504;13.438;2023-04-01T14:04:39;11.50;72.50
71563;DHT22;59391;52.504;13.438;2023-04-01T14:10:18;11.40;72.30
71563;DHT22;59391;52.504;13.438;2023-04-01T14:16:20;11.30;72.90
71563;DHT22;59391;52.504;13.438;2023-04-01T14:19:21;11.30;73.10
71563;DHT22;59391;52.504;13.438;2023-04-01T14:22:13;11.30;72.20
71563;DHT22;59391;52.504;13.438;2023-04-01T14:28:48;11.20;74.20
71563;DHT22;59391;52.504;13.438;2023-04-01T14:34:39;11.20;73.90
71563;DHT22;59391;52.504;13.438;2023-04-01T14:37:31;11.20;73.00
71563;DHT22;59391;52.504;13.438;2023-04-01T14:40:28;11.20;72.50
71563;DHT22;59391;52.504;13.438;2023-04-01T14:46:08;11.20;73.20
71563;DHT22;59391;52.504;13.438;2023-04-01T14:51:31;11.10;72.80
71563;DHT22;59391;52.504;13.438;2023-04-01T15:05:43;10.90;73.00
71563;DHT22;59391;52.504;13.438;2023-04-01T15:08:35;10.80;73.60
71563;DHT22;59391;52.504;13.438;2023-04-01T15:14:41;10.80;73.60
71563;DHT22;59391;52.504;13.438;2023-04-01T15:17:44;10.70;73.10
71563;DHT22;59391;52.504;13.438;2023-04-01T15:20:42;10.80;73.20
71563;DHT22;59391;52.504;13.438;2023-04-01T15:23:38;10.70;71.90
71563;DHT22;59391;52.504;13.438;2023-04-01T15:26:15;10.70;72.30
71563;DHT22;59391;52.504;13.438;2023-04-01T15:29:21;10.60;72.80
71563;DHT22;59391;52.504;13.438;2023-04-01T15:32:20;10.60;72.20
71563;DHT22;59391;52.504;13.438;2023-04-01T15:35:17;10.50;71.50
71563;DHT22;59391;52.504;13.438;2023-04-01T15:41:16;10.50;71.80
71563;DHT22;59391;52.504;13.438;2023-04-01T15:43:49;10.40;71.50
71563;DHT22;59391;52.504;13.438;2023-04-01T15:46:48;10.40;71.80
71563;DHT22;59391;52.504;13.438;2023-04-01T15:49:42;10.30;73.30
71563;DHT22;59391;52.504;13.438;2023-04-01T15:55:56;10.30;71.50
71563;DHT22;59391;52.504;13.438;2023-04-01T15:58:51;10.20;71.40
71563;DHT22;59391;52.504;13.438;2023-04-01T16:01:43;10.20;72.20
71563;DHT22;59391;52.504;13.438;2023-04-01T16:04:58;10.20;72.30
71563;DHT22;59391;52.504;13.438;2023-04-01T16:07:58;10.20;73.70
71563;DHT22;59391;52.504;13.438;2023-04-01T16:16:43;10.10;73.50
71563;DHT22;59391;52.504;13.438;2023-04-01T16:22:32;10.00;73.30
71563;DHT22;59391;52.504;13.438;2023-04-01T16:28:24;9.90;72.40
71563;DHT22;59391;52.504;13.438;2023-04-01T16:31:49;9.90;72.10
71563;DHT22;59391;52.504;13.438;2023-04-01T16:35:03;9.80;72.20
71563;DHT22;59391;52.504;13.438;2023-04-01T16:43:55;9.70;72.40
71563;DHT22;59391;52.504;13.438;2023-04-01T16:47:12;9.70;71.90
71563;DHT22;59391;52.504;13.438;2023-04-01T16:49:41;9.60;71.90
71563;DHT22;59391;52.504;13.438;2023-04-01T16:52:29;9.60;72.40
71563;DHT22;59391;52.504;13.438;2023-04-01T16:55:08;9.60;72.70
71563;DHT22;59391;52.504;13.438;2023-04-01T16:58:14;9.50;71.00
71563;DHT22;59391;52.504;13.438;2023-04-01T17:01:14;9.50;71.10
71563;DHT22;59391;52.504;13.438;2023-04-01T17:03:46;9.40;71.90
71563;DHT22;59391;52.504;13.438;2023-04-01T17:06:38;9.40;71.90
71563;DHT22;59391;52.504;13.438;2023-04-01T17:09:36;9.40;71.50
71563;DHT22;59391;52.504;13.438;2023-04-01T17:15:12;9.30;71.40
71563;DHT22;59391;52.504;13.438;2023-04-01T17:21:10;9.20;72.10
71563;DHT22;59391;52.504;13.438;2023-04-01T17:23:52;9.20;71.80
71563;DHT22;59391;52.504;13.438;2023-04-01T17:26:37;9.20;71.70
71563;DHT22;59391;52.504;13.438;2023-04-01T17:38:51;9.00;72.70
71563;DHT22;59391;52.504;13.438;2023-04-01T17:41:41;8.90;71.60
71563;DHT22;59391;52.504;13.438;2023-04-01T17:55:50;8.70;70.70
71563;DHT22;59391;52.504;13.438;2023-04-01T18:01:51;8.60;72.20
71563;DHT22;59391;52.504;13.438;2023-04-01T18:08:01;8.50;71.50
71563;DHT22;59391;52.504;13.438;2023-04-01T18:10:37;8.40;71.90
71563;DHT22;59391;52.504;13.438;2023-04-01T18:19:01;8.40;73.00
71563;DHT22;59391;52.504;13.438;2023-04-01T18:21:55;8.30;73.50
71563;DHT22;59391;52.504;13.438;2023-04-01T18:24:44;8.30;71.80
71563;DHT22;59391;52.504;13.438;2023-04-01T18:27:15;8.30;72.40
71563;DHT22;59391;52.504;13.438;2023-04-01T18:30:03;8.20;72.00
71563;DHT22;59391;52.504;13.438;2023-04-01T18:32:52;8.20;72.10
71563;DHT22;59391;52.504;13.438;2023-04-01T18:36:08;8.20;72.30
71563;DHT22;59391;52.504;13.438;2023-04-01T18:39:02;8.20;72.70
71563;DHT22;59391;52.504;13.438;2023-04-01T18:42:07;8.10;72.40
71563;DHT22;59391;52.504;13.438;2023-04-01T18:44:57;8.10;72.30
71563;DHT22;59391;52.504;13.438;2023-04-01T18:50:53;8.10;72.60
71563;DHT22;59391;52.504;13.438;2023-04-01T18:53:38;8.00;72.00
71563;DHT22;59391;52.504;13.438;2023-04-01T18:56:14;8.00;72.30
71563;DHT22;59391;52.504;13.438;2023-04-01T19:02:14;7.90;73.00
71563;DHT22;59391;52.504;13.438;2023-04-01T19:05:07;7.90;72.50
71563;DHT22;59391;52.504;13.438;2023-04-01T19:16:21;7.90;72.70
71563;DHT22;59391;52.504;13.438;2023-04-01T19:25:38;7.80;72.70
71563;DHT22;59391;52.504;13.438;2023-04-01T19:28:47;7.80;72.40
71563;DHT22;59391;52.504;13.438;2023-04-01T19:32:10;7.80;72.00
71563;DHT22;59391;52.504;13.438;2023-04-01T19:35:13;7.70;72.00
71563;DHT22;59391;52.504;13.438;2023-04-01T19:40:50;7.60;72.40
71563;DHT22;59391;52.504;13.438;2023-04-01T19:46:33;7.60;73.30
71563;DHT22;59391;52.504;13.438;2023-04-01T19:49:16;7.50;73.10
71563;DHT22;59391;52.504;13.438;2023-04-01T19:52:00;7.50;73.30
71563;DHT22;59391;52.504;13.438;2023-04-01T19:55:31;7.50;73.70
71563;DHT22;59391;52.504;13.438;2023-04-01T20:00:59;7.40;73.10
71563;DHT22;59391;52.504;13.438;2023-04-01T20:03:39;7.40;73.40
71563;DHT22;59391;52.504;13.438;2023-04-01T20:06:38;7.40;73.10
71563;DHT22;59391;52.504;13.438;2023-04-01T20:09:26;7.30;73.50
71563;DHT22;59391;52.504;13.438;2023-04-01T20:14:58;7.30;73.40
71563;DHT22;59391;52.504;13.438;2023-04-01T20:17:32;7.30;73.70
71563;DHT22;59391;52.504;13.438;2023-04-01T20:25:31;7.20;73.20
71563;DHT22;59391;52.504;13.438;2023-04-01T20:40:20;7.20;72.30
71563;DHT22;59391;52.504;13.438;2023-04-01T20:43:14;7.10;72.10
71563;DHT22;59391;52.504;13.438;2023-04-01T20:51:25;7.10;72.30
71563;DHT22;59391;52.504;13.438;2023-04-01T21:00:18;7.00;71.80
71563;DHT22;59391;52.504;13.438;2023-04-01T21:09:28;6.80;71.70
71563;DHT22;59391;52.504;13.438;2023-04-01T21:12:24;6.80;71.30
71563;DHT22;59391;52.504;13.438;2023-04-01T21:18:10;6.70;72.00
71563;DHT22;59391;52.504;13.438;2023-04-01T21:23:49;6.70;71.40
71563;DHT22;59391;52.504;13.438;2023-04-01T21:26:58;6.70;70.90
71563;DHT22;59391;52.504;13.438;2023-04-01T21:30:01;6.70;71.80
71563;DHT22;59391;52.504;13.438;2023-04-01T21:33:26;6.60;72.10
71563;DHT22;59391;52.504;13.438;2023-04-01T21:36:08;6.60;71.30
71563;DHT22;59391;52.504;13.438;2023-04-01T21:42:13;6.60;71.40
71563;DHT22;59391;52.504;13.438;2023-04-01T21:48:27;6.50;71.80
71563;DHT22;59391;52.504;13.438;2023-04-01T21:51:38;6.50;70.40
71563;DHT22;59391;52.504;13.438;2023-04-01T21:54:42;6.50;70.60
71563;DHT22;59391;52.504;13.438;2023-04-01T22:00:32;6.50;70.50
71563;DHT22;59391;52.504;13.438;2023-04-01T22:03:14;6.50;69.60
71563;DHT22;59391;52.504;13.438;2023-04-01T22:06:32;6.50;69.90
71563;DHT22;59391;52.504;13.438;2023-04-01T22:09:24;6.50;69.90
71563;DHT22;59391;52.504;13.438;2023-04-01T22:12:04;6.40;69.90
71563;DHT22;59391;52.504;13.438;2023-04-01T22:15:03;6.40;69.80
71563;DHT22;59391;52.504;13.438;2023-04-01T22:17:48;6.40;70.30
71563;DHT22;59391;52.504;13.438;2023-04-01T22:23:58;6.40;69.90
71563;DHT22;59391;52.504;13.438;2023-04-01T22:27:00;6.40;68.90
71563;DHT22;59391;52.504;13.438;2023-04-01T22:30:04;6.40;70.30
71563;DHT22;59391;52.504;13.438;2023-04-01T22:32:42;6.40;70.00
71563;DHT22;59391;52.504;13.438;2023-04-01T22:38:37;6.40;70.10
71563;DHT22;59391;52.504;13.438;2023-04-01T22:41:43;6.40;69.40
71563;DHT22;59391;52.504;13.438;2023-04-01T22:44:57;6.40;69.50
71563;DHT22;59391;52.504;13.438;2023-04-01T22:48:02;6.40;69.80
71563;DHT22;59391;52.504;13.438;2023-04-01T22:50:59;6.40;69.30
71563;DHT22;59391;52.504;13.438;2023-04-01T22:53:36;6.40;69.40
71563;DHT22;59391;52.504;13.438;2023-04-01T22:56:12;6.40;69.80
71563;DHT22;59391;52.504;13.438;2023-04-01T22:58:54;6.40;69.00
71563;DHT22;59391;52.504;13.438;2023-04-01T23:01:34;6.30;68.60
71563;DHT22;59391;52.504;13.438;2023-04-01T23:04:07;6.30;69.70
71563;DHT22;59391;52.504;13.438;2023-04-01T23:06:43;6.30;69.20
71563;DHT22;59391;52.504;13.438;2023-04-01T23:09:23;6.30;67.90
71563;DHT22;59391;52.504;13.438;2023-04-01T23:12:03;6.30;69.10
71563;DHT22;59391;52.504;13.438;2023-04-01T23:14:51;6.30;68.40
71563;DHT22;59391;52.504;13.438;2023-04-01T23:21:11;6.30;69.10
71563;DHT22;59391;52.504;13.438;2023-04-01T23:24:22;6.30;68.50
71563;DHT22;59391;52.504;13.438;2023-04-01T23:27:01;6.30;68.70
71563;DHT22;59391;52.504;13.438;2023-04-01T23:29:35;6.30;68.40
71563;DHT22;59391;52.504;13.438;2023-04-01T23:32:05;6.30;68.60
71563;DHT22;59391;52.504;13.438;2023-04-01T23:34:49;6.30;67.40
71563;DHT22;59391;52.504;13.438;2023-04-01T23:37:17;6.30;67.70
71563;DHT22;59391;52.504;13.438;2023-04-01T23:39:56;6.30;66.80
71563;DHT22;59391;52.504;13.438;2023-04-01T23:42:28;6.20;68.80